Time;durP1;ratioP1;P1;durP2;ratioP2;P2;SDS_P1;SDS_P2;PMS_P1;PMS_P2;Temp;Humidity;BMP_temperature;BMP_pressure;BME280_temperature;BME280_humidity;BME280_pressure;Samples;Min_cycle;Max_cycle;Signal;HPM_P1;HPM_P2
2019/10/03 00:01:57;;;;;;;3.35;3.05;;;;;;;6.3;100;95317.47;;;;
2019/10/03 00:03:00;;;;;;;3.35;3.05;;;;;;;6.3;100;95317.47;;;;
2019/10/03 00:04:04;;;;;;;3.35;3.05;;;;;;;6.3;100;95317.47;;;;
2019/10/03 00:05:06;;;;;;;3.35;3.05;;;;;;;6.3;100;95317.47;;;;
2019/10/03 00:06:08;;;;;;;3.35;3.05;;;;;;;6.3;100;95317.47;;;;
2019/10/03 00:07:09;;;;;;;3.35;3.05;;;;;;;6.3;100;95317.47;;;;
2019/10/03 00:08:11;;;;;;;3.35;3.05;;;;;;;6.3;100;95317.47;;;;
2019/10/03 00:09:12;;;;;;;2.85;2.55;;;;;;;6.34;100;95311.17;;;;
2019/10/03 00:10:14;;;;;;;2.85;2.55;;;;;;;6.34;100;95311.17;;;;
2019/10/03 00:11:18;;;;;;;2.85;2.55;;;;;;;6.34;100;95311.17;;;;
2019/10/03 00:12:19;;;;;;;2.85;2.55;;;;;;;6.34;100;95311.17;;;;
2019/10/03 00:13:20;;;;;;;2.85;2.55;;;;;;;6.34;100;95311.17;;;;
2019/10/03 00:14:22;;;;;;;2.85;2.55;;;;;;;6.34;100;95311.17;;;;
2019/10/03 00:15:23;;;;;;;2.85;2.55;;;;;;;6.34;100;95311.17;;;;
2019/10/03 00:16:25;;;;;;;2.85;2.55;;;;;;;6.34;100;95311.17;;;;
2019/10/03 00:17:27;;;;;;;2.85;2.55;;;;;;;6.34;100;95311.17;;;;
2019/10/03 00:18:28;;;;;;;2.85;2.55;;;;;;;6.34;100;95311.17;;;;
2019/10/03 00:19:29;;;;;;;4.5;3.05;;;;;;;6.2;100;95309.55;;;;
2019/10/03 00:20:30;;;;;;;4.5;3.05;;;;;;;6.2;100;95309.55;;;;
2019/10/03 00:21:35;;;;;;;4.5;3.05;;;;;;;6.2;100;95309.55;;;;
2019/10/03 00:22:36;;;;;;;4.5;3.05;;;;;;;6.2;100;95309.55;;;;
2019/10/03 00:23:38;;;;;;;4.5;3.05;;;;;;;6.2;100;95309.55;;;;
2019/10/03 00:25:10;;;;;;;4.5;3.05;;;;;;;6.2;100;95309.55;;;;
2019/10/03 00:26:19;;;;;;;4.5;3.05;;;;;;;6.2;100;95309.55;;;;
2019/10/03 00:27:21;;;;;;;4.5;3.05;;;;;;;6.2;100;95309.55;;;;
2019/10/03 00:28:22;;;;;;;4.5;3.05;;;;;;;6.2;100;95309.55;;;;
2019/10/03 00:29:23;;;;;;;4.5;3.05;;;;;;;6.2;100;95309.55;;;;
2019/10/03 00:30:24;;;;;;;4.6;3.65;;;;;;;6.01;100;95302.37;;;;
2019/10/03 00:31:32;;;;;;;4.6;3.65;;;;;;;6.01;100;95302.37;;;;
2019/10/03 00:32:33;;;;;;;4.6;3.65;;;;;;;6.01;100;95302.37;;;;
2019/10/03 00:33:34;;;;;;;4.6;3.65;;;;;;;6.01;100;95302.37;;;;
2019/10/03 00:34:36;;;;;;;4.6;3.65;;;;;;;6.01;100;95302.37;;;;
2019/10/03 00:35:37;;;;;;;4.6;3.65;;;;;;;6.01;100;95302.37;;;;
2019/10/03 00:36:38;;;;;;;4.6;3.65;;;;;;;6.01;100;95302.37;;;;
2019/10/03 00:37:39;;;;;;;4.6;3.65;;;;;;;6.01;100;95302.37;;;;
2019/10/03 00:38:41;;;;;;;4.6;3.65;;;;;;;6.01;100;95302.37;;;;
2019/10/03 00:39:42;;;;;;;4.6;3.65;;;;;;;6.01;100;95302.37;;;;
2019/10/03 00:40:43;;;;;;;4.550001;4.05;;;;;;;6.05;100;95307.51;;;;
2019/10/03 00:41:50;;;;;;;4.550001;4.05;;;;;;;6.05;100;95307.51;;;;
2019/10/03 00:42:51;;;;;;;4.550001;4.05;;;;;;;6.05;100;95307.51;;;;
2019/10/03 00:43:53;;;;;;;4.550001;4.05;;;;;;;6.05;100;95307.51;;;;
2019/10/03 00:44:54;;;;;;;4.550001;4.05;;;;;;;6.05;100;95307.51;;;;
2019/10/03 00:45:55;;;;;;;4.550001;4.05;;;;;;;6.05;100;95307.51;;;;
2019/10/03 00:46:57;;;;;;;4.550001;4.05;;;;;;;6.05;100;95307.51;;;;
2019/10/03 00:47:58;;;;;;;4.550001;4.05;;;;;;;6.05;100;95307.51;;;;
2019/10/03 00:48:59;;;;;;;4.550001;4.05;;;;;;;6.05;100;95307.51;;;;
2019/10/03 00:50:00;;;;;;;4.550001;4.05;;;;;;;6.05;100;95307.51;;;;
2019/10/03 00:51:03;;;;;;;4.550001;4.05;;;;;;;6.05;100;95307.51;;;;
2019/10/03 00:52:04;;;;;;;3.400001;3.1;;;;;;;6.08;100;95305.74;;;;
2019/10/03 00:53:06;;;;;;;3.400001;3.1;;;;;;;6.08;100;95305.74;;;;
2019/10/03 00:54:07;;;;;;;3.400001;3.1;;;;;;;6.08;100;95305.74;;;;
2019/10/03 00:55:08;;;;;;;3.400001;3.1;;;;;;;6.08;100;95305.74;;;;
2019/10/03 00:56:13;;;;;;;3.400001;3.1;;;;;;;6.08;100;95305.74;;;;
2019/10/03 00:57:15;;;;;;;3.400001;3.1;;;;;;;6.08;100;95305.74;;;;
2019/10/03 00:58:16;;;;;;;3.400001;3.1;;;;;;;6.08;100;95305.74;;;;
2019/10/03 00:59:17;;;;;;;3.400001;3.1;;;;;;;6.08;100;95305.74;;;;
2019/10/03 01:00:18;;;;;;;3.400001;3.1;;;;;;;6.08;100;95305.74;;;;
2019/10/03 01:01:20;;;;;;;3.400001;3.1;;;;;;;6.08;100;95305.74;;;;
2019/10/03 01:02:21;;;;;;;4.45;4.050001;;;;;;;5.88;100;95304.13;;;;
2019/10/03 01:03:22;;;;;;;4.45;4.050001;;;;;;;5.88;100;95304.13;;;;
2019/10/03 01:04:23;;;;;;;4.45;4.050001;;;;;;;5.88;100;95304.13;;;;
2019/10/03 01:05:25;;;;;;;4.45;4.050001;;;;;;;5.88;100;95304.13;;;;
2019/10/03 01:06:33;;;;;;;4.45;4.050001;;;;;;;5.88;100;95304.13;;;;
2019/10/03 01:07:35;;;;;;;4.45;4.050001;;;;;;;5.88;100;95304.13;;;;
2019/10/03 01:08:36;;;;;;;4.45;4.050001;;;;;;;5.88;100;95304.13;;;;
2019/10/03 01:09:37;;;;;;;4.45;4.050001;;;;;;;5.88;100;95304.13;;;;
2019/10/03 01:10:38;;;;;;;4.45;4.050001;;;;;;;5.88;100;95304.13;;;;
2019/10/03 01:11:40;;;;;;;4.45;4.050001;;;;;;;5.88;100;95304.13;;;;
2019/10/03 01:12:42;;;;;;;4.75;4.349999;;;;;;;5.95;100;95300.42;;;;
2019/10/03 01:13:43;;;;;;;4.75;4.349999;;;;;;;5.95;100;95300.42;;;;
2019/10/03 01:14:44;;;;;;;4.75;4.349999;;;;;;;5.95;100;95300.42;;;;
2019/10/03 01:15:46;;;;;;;4.75;4.349999;;;;;;;5.95;100;95300.42;;;;
2019/10/03 01:16:50;;;;;;;4.75;4.349999;;;;;;;5.95;100;95300.42;;;;
2019/10/03 01:17:52;;;;;;;4.75;4.349999;;;;;;;5.95;100;95300.42;;;;
2019/10/03 01:18:53;;;;;;;4.75;4.349999;;;;;;;5.95;100;95300.42;;;;
2019/10/03 01:19:54;;;;;;;4.75;4.349999;;;;;;;5.95;100;95300.42;;;;
2019/10/03 01:20:55;;;;;;;4.75;4.349999;;;;;;;5.95;100;95300.42;;;;
2019/10/03 01:21:56;;;;;;;4.75;4.349999;;;;;;;5.95;100;95300.42;;;;
2019/10/03 01:22:58;;;;;;;5.6;5.05;;;;;;;6.01;100;95309.06;;;;
2019/10/03 01:23:59;;;;;;;5.6;5.05;;;;;;;6.01;100;95309.06;;;;
2019/10/03 01:25:00;;;;;;;5.6;5.05;;;;;;;6.01;100;95309.06;;;;
2019/10/03 01:26:02;;;;;;;5.6;5.05;;;;;;;6.01;100;95309.06;;;;
2019/10/03 01:27:04;;;;;;;5.6;5.05;;;;;;;6.01;100;95309.06;;;;
2019/10/03 01:28:05;;;;;;;5.6;5.05;;;;;;;6.01;100;95309.06;;;;
2019/10/03 01:29:06;;;;;;;5.6;5.05;;;;;;;6.01;100;95309.06;;;;
2019/10/03 01:30:17;;;;;;;5.6;5.05;;;;;;;6.01;100;95309.06;;;;
2019/10/03 01:31:34;;;;;;;5.6;5.05;;;;;;;6.01;100;95309.06;;;;
2019/10/03 01:32:35;;;;;;;5.6;5.05;;;;;;;6.01;100;95309.06;;;;
2019/10/03 01:33:37;;;;;;;6.5;5.05;;;;;;;6.1;100;95305.53;;;;
2019/10/03 01:34:38;;;;;;;6.5;5.05;;;;;;;6.1;100;95305.53;;;;
2019/10/03 01:35:39;;;;;;;6.5;5.05;;;;;;;6.1;100;95305.53;;;;
2019/10/03 01:36:41;;;;;;;6.5;5.05;;;;;;;6.1;100;95305.53;;;;
2019/10/03 01:37:42;;;;;;;6.5;5.05;;;;;;;6.1;100;95305.53;;;;
2019/10/03 01:38:43;;;;;;;6.5;5.05;;;;;;;6.1;100;95305.53;;;;
2019/10/03 01:39:44;;;;;;;6.5;5.05;;;;;;;6.1;100;95305.53;;;;
2019/10/03 01:40:45;;;;;;;6.5;5.05;;;;;;;6.1;100;95305.53;;;;
2019/10/03 01:41:47;;;;;;;6.5;5.05;;;;;;;6.1;100;95305.53;;;;
2019/10/03 01:42:48;;;;;;;6.5;5.05;;;;;;;6.1;100;95305.53;;;;
2019/10/03 01:43:49;;;;;;;6.5;5.05;;;;;;;6.1;100;95305.53;;;;
2019/10/03 01:44:50;;;;;;;6.549999;5.45;;;;;;;5.87;100;95299.78;;;;
2019/10/03 01:45:51;;;;;;;6.549999;5.45;;;;;;;5.87;100;95299.78;;;;
2019/10/03 01:46:53;;;;;;;6.549999;5.45;;;;;;;5.87;100;95299.78;;;;
2019/10/03 01:47:54;;;;;;;6.549999;5.45;;;;;;;5.87;100;95299.78;;;;
2019/10/03 01:48:55;;;;;;;6.549999;5.45;;;;;;;5.87;100;95299.78;;;;
2019/10/03 01:49:56;;;;;;;6.549999;5.45;;;;;;;5.87;100;95299.78;;;;
2019/10/03 01:50:57;;;;;;;6.549999;5.45;;;;;;;5.87;100;95299.78;;;;
2019/10/03 01:51:59;;;;;;;6.549999;5.45;;;;;;;5.87;100;95299.78;;;;
2019/10/03 01:53:00;;;;;;;6.549999;5.45;;;;;;;5.87;100;95299.78;;;;
2019/10/03 01:54:02;;;;;;;6.549999;5.45;;;;;;;5.87;100;95299.78;;;;
2019/10/03 01:55:03;;;;;;;7.5;6.3;;;;;;;5.83;100;95307.93;;;;
2019/10/03 01:56:05;;;;;;;7.5;6.3;;;;;;;5.83;100;95307.93;;;;
2019/10/03 01:57:06;;;;;;;7.5;6.3;;;;;;;5.83;100;95307.93;;;;
2019/10/03 01:58:07;;;;;;;7.5;6.3;;;;;;;5.83;100;95307.93;;;;
2019/10/03 01:59:09;;;;;;;7.5;6.3;;;;;;;5.83;100;95307.93;;;;
2019/10/03 02:00:10;;;;;;;7.5;6.3;;;;;;;5.83;100;95307.93;;;;
2019/10/03 02:01:24;;;;;;;7.5;6.3;;;;;;;5.83;100;95307.93;;;;
2019/10/03 02:02:26;;;;;;;7.5;6.3;;;;;;;5.83;100;95307.93;;;;
2019/10/03 02:03:27;;;;;;;7.5;6.3;;;;;;;5.83;100;95307.93;;;;
2019/10/03 02:04:29;;;;;;;7.5;6.3;;;;;;;5.83;100;95307.93;;;;
2019/10/03 02:05:30;;;;;;;7.550002;6.75;;;;;;;5.89;100;95322.25;;;;
2019/10/03 02:06:32;;;;;;;7.550002;6.75;;;;;;;5.89;100;95322.25;;;;
2019/10/03 02:07:33;;;;;;;7.550002;6.75;;;;;;;5.89;100;95322.25;;;;
2019/10/03 02:08:34;;;;;;;7.550002;6.75;;;;;;;5.89;100;95322.25;;;;
2019/10/03 02:09:36;;;;;;;7.550002;6.75;;;;;;;5.89;100;95322.25;;;;
2019/10/03 02:11:08;;;;;;;7.550002;6.75;;;;;;;5.89;100;95322.25;;;;
2019/10/03 02:12:16;;;;;;;7.550002;6.75;;;;;;;5.89;100;95322.25;;;;
2019/10/03 02:13:17;;;;;;;7.550002;6.75;;;;;;;5.89;100;95322.25;;;;
2019/10/03 02:14:19;;;;;;;7.550002;6.75;;;;;;;5.89;100;95322.25;;;;
2019/10/03 02:15:20;;;;;;;7.550002;6.75;;;;;;;5.89;100;95322.25;;;;
2019/10/03 02:16:21;;;;;;;8.000001;6.550001;;;;;;;6.12;100;95319.97;;;;
2019/10/03 02:17:23;;;;;;;8.000001;6.550001;;;;;;;6.12;100;95319.97;;;;
2019/10/03 02:18:24;;;;;;;8.000001;6.550001;;;;;;;6.12;100;95319.97;;;;
2019/10/03 02:19:25;;;;;;;8.000001;6.550001;;;;;;;6.12;100;95319.97;;;;
2019/10/03 02:20:27;;;;;;;8.000001;6.550001;;;;;;;6.12;100;95319.97;;;;
2019/10/03 02:21:28;;;;;;;8.000001;6.550001;;;;;;;6.12;100;95319.97;;;;
2019/10/03 02:22:29;;;;;;;8.000001;6.550001;;;;;;;6.12;100;95319.97;;;;
2019/10/03 02:23:31;;;;;;;8.000001;6.550001;;;;;;;6.12;100;95319.97;;;;
2019/10/03 02:24:32;;;;;;;8.000001;6.550001;;;;;;;6.12;100;95319.97;;;;
2019/10/03 02:25:34;;;;;;;8.000001;6.550001;;;;;;;6.12;100;95319.97;;;;
2019/10/03 02:26:35;;;;;;;9.200001;7.75;;;;;;;6.21;100;95312.02;;;;
2019/10/03 02:27:36;;;;;;;9.200001;7.75;;;;;;;6.21;100;95312.02;;;;
2019/10/03 02:28:37;;;;;;;9.200001;7.75;;;;;;;6.21;100;95312.02;;;;
2019/10/03 02:29:38;;;;;;;9.200001;7.75;;;;;;;6.21;100;95312.02;;;;
2019/10/03 02:30:39;;;;;;;9.200001;7.75;;;;;;;6.21;100;95312.02;;;;
2019/10/03 02:31:41;;;;;;;9.200001;7.75;;;;;;;6.21;100;95312.02;;;;
2019/10/03 02:32:42;;;;;;;9.200001;7.75;;;;;;;6.21;100;95312.02;;;;
2019/10/03 02:33:43;;;;;;;9.200001;7.75;;;;;;;6.21;100;95312.02;;;;
2019/10/03 02:34:44;;;;;;;9.200001;7.75;;;;;;;6.21;100;95312.02;;;;
2019/10/03 02:35:45;;;;;;;9.200001;7.75;;;;;;;6.21;100;95312.02;;;;
2019/10/03 02:36:47;;;;;;;9.200001;7.75;;;;;;;6.21;100;95312.02;;;;
2019/10/03 02:37:49;;;;;;;9.699999;8.15;;;;;;;6.28;100;95315.52;;;;
2019/10/03 02:38:50;;;;;;;9.699999;8.15;;;;;;;6.28;100;95315.52;;;;
2019/10/03 02:39:51;;;;;;;9.699999;8.15;;;;;;;6.28;100;95315.52;;;;
2019/10/03 02:40:52;;;;;;;9.699999;8.15;;;;;;;6.28;100;95315.52;;;;
2019/10/03 02:41:54;;;;;;;9.699999;8.15;;;;;;;6.28;100;95315.52;;;;
2019/10/03 02:42:55;;;;;;;9.699999;8.15;;;;;;;6.28;100;95315.52;;;;
2019/10/03 02:43:56;;;;;;;9.699999;8.15;;;;;;;6.28;100;95315.52;;;;
2019/10/03 02:44:57;;;;;;;9.699999;8.15;;;;;;;6.28;100;95315.52;;;;
2019/10/03 02:45:58;;;;;;;9.699999;8.15;;;;;;;6.28;100;95315.52;;;;
2019/10/03 02:47:00;;;;;;;9.699999;8.15;;;;;;;6.28;100;95315.52;;;;
2019/10/03 02:48:01;;;;;;;10.4;8.549999;;;;;;;6.32;100;95306.44;;;;
2019/10/03 02:49:03;;;;;;;10.4;8.549999;;;;;;;6.32;100;95306.44;;;;
2019/10/03 02:50:04;;;;;;;10.4;8.549999;;;;;;;6.32;100;95306.44;;;;
2019/10/03 02:51:06;;;;;;;10.4;8.549999;;;;;;;6.32;100;95306.44;;;;
2019/10/03 02:52:07;;;;;;;10.4;8.549999;;;;;;;6.32;100;95306.44;;;;
2019/10/03 02:53:08;;;;;;;10.4;8.549999;;;;;;;6.32;100;95306.44;;;;
2019/10/03 02:54:10;;;;;;;10.4;8.549999;;;;;;;6.32;100;95306.44;;;;
2019/10/03 02:55:11;;;;;;;10.4;8.549999;;;;;;;6.32;100;95306.44;;;;
2019/10/03 02:56:26;;;;;;;10.4;8.549999;;;;;;;6.32;100;95306.44;;;;
2019/10/03 02:58:03;;;;;;;10.4;8.549999;;;;;;;6.32;100;95306.44;;;;
2019/10/03 02:59:04;;;;;;;15;11.25;;;;;;;6.47;100;95308.47;;;;
2019/10/03 03:00:05;;;;;;;15;11.25;;;;;;;6.47;100;95308.47;;;;
2019/10/03 03:01:07;;;;;;;15;11.25;;;;;;;6.47;100;95308.47;;;;
2019/10/03 03:02:08;;;;;;;15;11.25;;;;;;;6.47;100;95308.47;;;;
2019/10/03 03:03:10;;;;;;;15;11.25;;;;;;;6.47;100;95308.47;;;;
2019/10/03 03:04:11;;;;;;;15;11.25;;;;;;;6.47;100;95308.47;;;;
2019/10/03 03:05:12;;;;;;;15;11.25;;;;;;;6.47;100;95308.47;;;;
2019/10/03 03:06:14;;;;;;;15;11.25;;;;;;;6.47;100;95308.47;;;;
2019/10/03 03:07:15;;;;;;;15;11.25;;;;;;;6.47;100;95308.47;;;;
2019/10/03 03:08:17;;;;;;;15;11.25;;;;;;;6.47;100;95308.47;;;;
2019/10/03 03:09:18;;;;;;;14;10.75;;;;;;;6.56;100;95306.7;;;;
2019/10/03 03:10:19;;;;;;;14;10.75;;;;;;;6.56;100;95306.7;;;;
2019/10/03 03:11:21;;;;;;;14;10.75;;;;;;;6.56;100;95306.7;;;;
2019/10/03 03:12:22;;;;;;;14;10.75;;;;;;;6.56;100;95306.7;;;;
2019/10/03 03:13:23;;;;;;;14;10.75;;;;;;;6.56;100;95306.7;;;;
2019/10/03 03:14:25;;;;;;;14;10.75;;;;;;;6.56;100;95306.7;;;;
2019/10/03 03:15:26;;;;;;;14;10.75;;;;;;;6.56;100;95306.7;;;;
2019/10/03 03:16:27;;;;;;;14;10.75;;;;;;;6.56;100;95306.7;;;;
2019/10/03 03:17:28;;;;;;;14;10.75;;;;;;;6.56;100;95306.7;;;;
2019/10/03 03:18:32;;;;;;;14;10.75;;;;;;;6.56;100;95306.7;;;;
2019/10/03 03:19:39;;;;;;;13.9;11.3;;;;;;;6.7;100;95305.2;;;;
2019/10/03 03:20:46;;;;;;;13.9;11.3;;;;;;;6.7;100;95305.2;;;;
2019/10/03 03:21:58;;;;;;;13.9;11.3;;;;;;;6.7;100;95305.2;;;;
2019/10/03 03:23:06;;;;;;;13.9;11.3;;;;;;;6.7;100;95305.2;;;;
2019/10/03 03:24:07;;;;;;;13.9;11.3;;;;;;;6.7;100;95305.2;;;;
2019/10/03 03:25:09;;;;;;;13.9;11.3;;;;;;;6.7;100;95305.2;;;;
2019/10/03 03:26:42;;;;;;;13.9;11.3;;;;;;;6.7;100;95305.2;;;;
2019/10/03 03:27:49;;;;;;;13.9;11.3;;;;;;;6.7;100;95305.2;;;;
2019/10/03 03:28:50;;;;;;;13.9;11.3;;;;;;;6.7;100;95305.2;;;;
2019/10/03 03:29:52;;;;;;;13.9;11.3;;;;;;;6.7;100;95305.2;;;;
2019/10/03 03:30:53;;;;;;;15.1;11.6;;;;;;;6.72;100;95308.92;;;;
2019/10/03 03:31:55;;;;;;;15.1;11.6;;;;;;;6.72;100;95308.92;;;;
2019/10/03 03:32:56;;;;;;;15.1;11.6;;;;;;;6.72;100;95308.92;;;;
2019/10/03 03:33:57;;;;;;;15.1;11.6;;;;;;;6.72;100;95308.92;;;;
2019/10/03 03:34:58;;;;;;;15.1;11.6;;;;;;;6.72;100;95308.92;;;;
2019/10/03 03:35:59;;;;;;;15.1;11.6;;;;;;;6.72;100;95308.92;;;;
2019/10/03 03:37:01;;;;;;;15.1;11.6;;;;;;;6.72;100;95308.92;;;;
2019/10/03 03:38:02;;;;;;;15.1;11.6;;;;;;;6.72;100;95308.92;;;;
2019/10/03 03:39:04;;;;;;;15.1;11.6;;;;;;;6.72;100;95308.92;;;;
2019/10/03 03:40:12;;;;;;;15.1;11.6;;;;;;;6.72;100;95308.92;;;;
2019/10/03 03:41:14;;;;;;;14.8;11.4;;;;;;;6.85;100;95314.76;;;;
2019/10/03 03:42:15;;;;;;;14.8;11.4;;;;;;;6.85;100;95314.76;;;;
2019/10/03 03:43:16;;;;;;;14.8;11.4;;;;;;;6.85;100;95314.76;;;;
2019/10/03 03:44:17;;;;;;;14.8;11.4;;;;;;;6.85;100;95314.76;;;;
2019/10/03 03:45:18;;;;;;;14.8;11.4;;;;;;;6.85;100;95314.76;;;;
2019/10/03 03:46:22;;;;;;;14.8;11.4;;;;;;;6.85;100;95314.76;;;;
2019/10/03 03:47:23;;;;;;;14.8;11.4;;;;;;;6.85;100;95314.76;;;;
2019/10/03 03:48:24;;;;;;;14.8;11.4;;;;;;;6.85;100;95314.76;;;;
2019/10/03 03:49:26;;;;;;;14.8;11.4;;;;;;;6.85;100;95314.76;;;;
2019/10/03 03:50:27;;;;;;;14.8;11.4;;;;;;;6.85;100;95314.76;;;;
2019/10/03 03:51:28;;;;;;;16.9;12.8;;;;;;;6.94;100;95317.93;;;;
2019/10/03 03:52:30;;;;;;;16.9;12.8;;;;;;;6.94;100;95317.93;;;;
2019/10/03 03:53:31;;;;;;;16.9;12.8;;;;;;;6.94;100;95317.93;;;;
2019/10/03 03:54:32;;;;;;;16.9;12.8;;;;;;;6.94;100;95317.93;;;;
2019/10/03 03:55:33;;;;;;;16.9;12.8;;;;;;;6.94;100;95317.93;;;;
2019/10/03 03:56:36;;;;;;;16.9;12.8;;;;;;;6.94;100;95317.93;;;;
2019/10/03 03:57:37;;;;;;;16.9;12.8;;;;;;;6.94;100;95317.93;;;;
2019/10/03 03:58:38;;;;;;;16.9;12.8;;;;;;;6.94;100;95317.93;;;;
2019/10/03 03:59:39;;;;;;;16.9;12.8;;;;;;;6.94;100;95317.93;;;;
2019/10/03 04:00:40;;;;;;;16.9;12.8;;;;;;;6.94;100;95317.93;;;;
2019/10/03 04:02:00;;;;;;;17.95;12.7;;;;;;;7.06;100;95330.56;;;;
2019/10/03 04:03:02;;;;;;;17.95;12.7;;;;;;;7.06;100;95330.56;;;;
2019/10/03 04:04:03;;;;;;;17.95;12.7;;;;;;;7.06;100;95330.56;;;;
2019/10/03 04:05:05;;;;;;;17.95;12.7;;;;;;;7.06;100;95330.56;;;;
2019/10/03 04:06:06;;;;;;;17.95;12.7;;;;;;;7.06;100;95330.56;;;;
2019/10/03 04:07:08;;;;;;;17.95;12.7;;;;;;;7.06;100;95330.56;;;;
2019/10/03 04:08:09;;;;;;;17.95;12.7;;;;;;;7.06;100;95330.56;;;;
2019/10/03 04:09:10;;;;;;;17.95;12.7;;;;;;;7.06;100;95330.56;;;;
2019/10/03 04:10:11;;;;;;;17.95;12.7;;;;;;;7.06;100;95330.56;;;;
2019/10/03 04:11:13;;;;;;;17.95;12.7;;;;;;;7.06;100;95330.56;;;;
2019/10/03 04:12:15;;;;;;;17.95;12.7;;;;;;;7.06;100;95330.56;;;;
2019/10/03 04:13:16;;;;;;;18;13.4;;;;;;;7.09;100;95339.53;;;;
2019/10/03 04:14:18;;;;;;;18;13.4;;;;;;;7.09;100;95339.53;;;;
2019/10/03 04:15:19;;;;;;;18;13.4;;;;;;;7.09;100;95339.53;;;;
2019/10/03 04:16:21;;;;;;;18;13.4;;;;;;;7.09;100;95339.53;;;;
2019/10/03 04:17:23;;;;;;;18;13.4;;;;;;;7.09;100;95339.53;;;;
2019/10/03 04:18:27;;;;;;;18;13.4;;;;;;;7.09;100;95339.53;;;;
2019/10/03 04:19:28;;;;;;;18;13.4;;;;;;;7.09;100;95339.53;;;;
2019/10/03 04:20:30;;;;;;;18;13.4;;;;;;;7.09;100;95339.53;;;;
2019/10/03 04:21:36;;;;;;;18;13.4;;;;;;;7.09;100;95339.53;;;;
2019/10/03 04:22:38;;;;;;;18;13.4;;;;;;;7.09;100;95339.53;;;;
2019/10/03 04:23:39;;;;;;;19.85;13.3;;;;;;;7.14;100;95332.19;;;;
2019/10/03 04:24:40;;;;;;;19.85;13.3;;;;;;;7.14;100;95332.19;;;;
2019/10/03 04:25:41;;;;;;;19.85;13.3;;;;;;;7.14;100;95332.19;;;;
2019/10/03 04:26:42;;;;;;;19.85;13.3;;;;;;;7.14;100;95332.19;;;;
2019/10/03 04:27:44;;;;;;;19.85;13.3;;;;;;;7.14;100;95332.19;;;;
2019/10/03 04:28:45;;;;;;;19.85;13.3;;;;;;;7.14;100;95332.19;;;;
2019/10/03 04:29:46;;;;;;;19.85;13.3;;;;;;;7.14;100;95332.19;;;;
2019/10/03 04:30:47;;;;;;;19.85;13.3;;;;;;;7.14;100;95332.19;;;;
2019/10/03 04:31:49;;;;;;;19.85;13.3;;;;;;;7.14;100;95332.19;;;;
2019/10/03 04:32:50;;;;;;;19.85;13.3;;;;;;;7.14;100;95332.19;;;;
2019/10/03 04:33:51;;;;;;;17.6;13.3;;;;;;;7.09;100;95333.73;;;;
2019/10/03 04:34:52;;;;;;;17.6;13.3;;;;;;;7.09;100;95333.73;;;;
2019/10/03 04:35:53;;;;;;;17.6;13.3;;;;;;;7.09;100;95333.73;;;;
2019/10/03 04:36:54;;;;;;;17.6;13.3;;;;;;;7.09;100;95333.73;;;;
2019/10/03 04:37:55;;;;;;;17.6;13.3;;;;;;;7.09;100;95333.73;;;;
2019/10/03 04:38:57;;;;;;;17.6;13.3;;;;;;;7.09;100;95333.73;;;;
2019/10/03 04:39:58;;;;;;;17.6;13.3;;;;;;;7.09;100;95333.73;;;;
2019/10/03 04:40:59;;;;;;;17.6;13.3;;;;;;;7.09;100;95333.73;;;;
2019/10/03 04:42:00;;;;;;;17.6;13.3;;;;;;;7.09;100;95333.73;;;;
2019/10/03 04:43:01;;;;;;;17.6;13.3;;;;;;;7.09;100;95333.73;;;;
2019/10/03 04:44:03;;;;;;;17.6;13.3;;;;;;;7.09;100;95333.73;;;;
2019/10/03 04:45:04;;;;;;;17.15;12.1;;;;;;;7;100;95346.17;;;;
2019/10/03 04:46:06;;;;;;;17.15;12.1;;;;;;;7;100;95346.17;;;;
2019/10/03 04:47:07;;;;;;;17.15;12.1;;;;;;;7;100;95346.17;;;;
2019/10/03 04:48:08;;;;;;;17.15;12.1;;;;;;;7;100;95346.17;;;;
2019/10/03 04:49:09;;;;;;;17.15;12.1;;;;;;;7;100;95346.17;;;;
2019/10/03 04:50:11;;;;;;;17.15;12.1;;;;;;;7;100;95346.17;;;;
2019/10/03 04:51:29;;;;;;;17.15;12.1;;;;;;;7;100;95346.17;;;;
2019/10/03 04:52:30;;;;;;;17.15;12.1;;;;;;;7;100;95346.17;;;;
2019/10/03 04:53:31;;;;;;;17.15;12.1;;;;;;;7;100;95346.17;;;;
2019/10/03 04:54:33;;;;;;;17.15;12.1;;;;;;;7;100;95346.17;;;;
2019/10/03 04:55:34;;;;;;;15.65;11.75;;;;;;;6.66;100;95359.89;;;;
2019/10/03 04:56:35;;;;;;;15.65;11.75;;;;;;;6.66;100;95359.89;;;;
2019/10/03 04:57:36;;;;;;;15.65;11.75;;;;;;;6.66;100;95359.89;;;;
2019/10/03 04:58:38;;;;;;;15.65;11.75;;;;;;;6.66;100;95359.89;;;;
2019/10/03 04:59:39;;;;;;;15.65;11.75;;;;;;;6.66;100;95359.89;;;;
2019/10/03 05:00:42;;;;;;;15.65;11.75;;;;;;;6.66;100;95359.89;;;;
2019/10/03 05:01:51;;;;;;;15.65;11.75;;;;;;;6.66;100;95359.89;;;;
2019/10/03 05:02:53;;;;;;;15.65;11.75;;;;;;;6.66;100;95359.89;;;;
2019/10/03 05:04:00;;;;;;;15.65;11.75;;;;;;;6.66;100;95359.89;;;;
2019/10/03 05:05:08;;;;;;;15.65;11.75;;;;;;;6.66;100;95359.89;;;;
2019/10/03 05:06:45;;;;;;;16;11.9;;;;;;;6.44;100;95374.99;;;;
2019/10/03 05:07:47;;;;;;;16;11.9;;;;;;;6.44;100;95374.99;;;;
2019/10/03 05:08:50;;;;;;;16;11.9;;;;;;;6.44;100;95374.99;;;;
2019/10/03 05:09:51;;;;;;;16;11.9;;;;;;;6.44;100;95374.99;;;;
2019/10/03 05:10:53;;;;;;;16;11.9;;;;;;;6.44;100;95374.99;;;;
2019/10/03 05:11:54;;;;;;;16;11.9;;;;;;;6.44;100;95374.99;;;;
2019/10/03 05:12:55;;;;;;;16;11.9;;;;;;;6.44;100;95374.99;;;;
2019/10/03 05:13:56;;;;;;;16;11.9;;;;;;;6.44;100;95374.99;;;;
2019/10/03 05:14:57;;;;;;;16;11.9;;;;;;;6.44;100;95374.99;;;;
2019/10/03 05:15:59;;;;;;;16;11.9;;;;;;;6.44;100;95374.99;;;;
2019/10/03 05:17:17;;;;;;;16.6;12;;;;;;;6.42;100;95388.31;;;;
2019/10/03 05:18:18;;;;;;;16.6;12;;;;;;;6.42;100;95388.31;;;;
2019/10/03 05:19:21;;;;;;;16.6;12;;;;;;;6.42;100;95388.31;;;;
2019/10/03 05:20:22;;;;;;;16.6;12;;;;;;;6.42;100;95388.31;;;;
2019/10/03 05:21:23;;;;;;;16.6;12;;;;;;;6.42;100;95388.31;;;;
2019/10/03 05:22:25;;;;;;;16.6;12;;;;;;;6.42;100;95388.31;;;;
2019/10/03 05:23:26;;;;;;;16.6;12;;;;;;;6.42;100;95388.31;;;;
2019/10/03 05:24:27;;;;;;;16.6;12;;;;;;;6.42;100;95388.31;;;;
2019/10/03 05:25:28;;;;;;;16.6;12;;;;;;;6.42;100;95388.31;;;;
2019/10/03 05:26:29;;;;;;;16.6;12;;;;;;;6.42;100;95388.31;;;;
2019/10/03 05:27:31;;;;;;;14.85;10.55;;;;;;;6.39;100;95383.76;;;;
2019/10/03 05:28:32;;;;;;;14.85;10.55;;;;;;;6.39;100;95383.76;;;;
2019/10/03 05:29:33;;;;;;;14.85;10.55;;;;;;;6.39;100;95383.76;;;;
2019/10/03 05:30:34;;;;;;;14.85;10.55;;;;;;;6.39;100;95383.76;;;;
2019/10/03 05:31:35;;;;;;;14.85;10.55;;;;;;;6.39;100;95383.76;;;;
2019/10/03 05:32:37;;;;;;;14.85;10.55;;;;;;;6.39;100;95383.76;;;;
2019/10/03 05:33:38;;;;;;;14.85;10.55;;;;;;;6.39;100;95383.76;;;;
2019/10/03 05:34:40;;;;;;;14.85;10.55;;;;;;;6.39;100;95383.76;;;;
2019/10/03 05:35:41;;;;;;;14.85;10.55;;;;;;;6.39;100;95383.76;;;;
2019/10/03 05:36:42;;;;;;;14.85;10.55;;;;;;;6.39;100;95383.76;;;;
2019/10/03 05:37:44;;;;;;;12.6;9.2;;;;;;;6.13;100;95389.56;;;;
2019/10/03 05:38:46;;;;;;;12.6;9.2;;;;;;;6.13;100;95389.56;;;;
2019/10/03 05:39:47;;;;;;;12.6;9.2;;;;;;;6.13;100;95389.56;;;;
2019/10/03 05:40:49;;;;;;;12.6;9.2;;;;;;;6.13;100;95389.56;;;;
2019/10/03 05:41:50;;;;;;;12.6;9.2;;;;;;;6.13;100;95389.56;;;;
2019/10/03 05:42:51;;;;;;;12.6;9.2;;;;;;;6.13;100;95389.56;;;;
2019/10/03 05:43:52;;;;;;;12.6;9.2;;;;;;;6.13;100;95389.56;;;;
2019/10/03 05:44:53;;;;;;;12.6;9.2;;;;;;;6.13;100;95389.56;;;;
2019/10/03 05:45:56;;;;;;;12.6;9.2;;;;;;;6.13;100;95389.56;;;;
2019/10/03 05:46:58;;;;;;;12.6;9.2;;;;;;;6.13;100;95389.56;;;;
2019/10/03 05:47:59;;;;;;;15.35;9.099998;;;;;;;6.04;100;95373.38;;;;
2019/10/03 05:49:00;;;;;;;15.35;9.099998;;;;;;;6.04;100;95373.38;;;;
2019/10/03 05:50:02;;;;;;;15.35;9.099998;;;;;;;6.04;100;95373.38;;;;
2019/10/03 05:51:03;;;;;;;15.35;9.099998;;;;;;;6.04;100;95373.38;;;;
2019/10/03 05:52:04;;;;;;;15.35;9.099998;;;;;;;6.04;100;95373.38;;;;
2019/10/03 05:53:05;;;;;;;15.35;9.099998;;;;;;;6.04;100;95373.38;;;;
2019/10/03 05:54:07;;;;;;;15.35;9.099998;;;;;;;6.04;100;95373.38;;;;
2019/10/03 05:55:08;;;;;;;15.35;9.099998;;;;;;;6.04;100;95373.38;;;;
2019/10/03 05:56:09;;;;;;;15.35;9.099998;;;;;;;6.04;100;95373.38;;;;
2019/10/03 05:57:10;;;;;;;15.35;9.099998;;;;;;;6.04;100;95373.38;;;;
2019/10/03 05:58:12;;;;;;;15.35;9.099998;;;;;;;6.04;100;95373.38;;;;
2019/10/03 05:59:13;;;;;;;12.75;8.950001;;;;;;;5.89;100;95396.34;;;;
2019/10/03 06:00:14;;;;;;;12.75;8.950001;;;;;;;5.89;100;95396.34;;;;
2019/10/03 06:01:16;;;;;;;12.75;8.950001;;;;;;;5.89;100;95396.34;;;;
2019/10/03 06:02:17;;;;;;;12.75;8.950001;;;;;;;5.89;100;95396.34;;;;
2019/10/03 06:03:18;;;;;;;12.75;8.950001;;;;;;;5.89;100;95396.34;;;;
2019/10/03 06:04:19;;;;;;;12.75;8.950001;;;;;;;5.89;100;95396.34;;;;
2019/10/03 06:05:21;;;;;;;12.75;8.950001;;;;;;;5.89;100;95396.34;;;;
2019/10/03 06:06:22;;;;;;;12.75;8.950001;;;;;;;5.89;100;95396.34;;;;
2019/10/03 06:07:23;;;;;;;12.75;8.950001;;;;;;;5.89;100;95396.34;;;;
2019/10/03 06:08:24;;;;;;;12.75;8.950001;;;;;;;5.89;100;95396.34;;;;
2019/10/03 06:09:26;;;;;;;15.15;8.849999;;;;;;;5.9;100;95402.93;;;;
2019/10/03 06:10:27;;;;;;;15.15;8.849999;;;;;;;5.9;100;95402.93;;;;
2019/10/03 06:11:28;;;;;;;15.15;8.849999;;;;;;;5.9;100;95402.93;;;;
2019/10/03 06:12:29;;;;;;;15.15;8.849999;;;;;;;5.9;100;95402.93;;;;
2019/10/03 06:13:30;;;;;;;15.15;8.849999;;;;;;;5.9;100;95402.93;;;;
2019/10/03 06:14:31;;;;;;;15.15;8.849999;;;;;;;5.9;100;95402.93;;;;
2019/10/03 06:15:33;;;;;;;15.15;8.849999;;;;;;;5.9;100;95402.93;;;;
2019/10/03 06:16:34;;;;;;;15.15;8.849999;;;;;;;5.9;100;95402.93;;;;
2019/10/03 06:17:35;;;;;;;15.15;8.849999;;;;;;;5.9;100;95402.93;;;;
2019/10/03 06:18:37;;;;;;;15.15;8.849999;;;;;;;5.9;100;95402.93;;;;
2019/10/03 06:19:38;;;;;;;15.15;8.849999;;;;;;;5.9;100;95402.93;;;;
2019/10/03 06:20:39;;;;;;;11.7;8.75;;;;;;;5.97;100;95417.58;;;;